createdAt,value
2019-01-12T00:00:36.389Z,2.17
2019-01-12T00:03:02.812Z,1.87
2019-01-12T00:05:29.182Z,2.10
2019-01-12T00:07:55.549Z,2.30
2019-01-12T00:10:21.904Z,2.80
2019-01-12T00:12:48.322Z,2.37
2019-01-12T00:15:14.685Z,2.47
2019-01-12T00:17:41.158Z,2.20
2019-01-12T00:20:07.687Z,2.10
2019-01-12T00:22:34.042Z,2.37
2019-01-12T00:25:00.452Z,2.50
2019-01-12T00:27:26.809Z,2.33
2019-01-12T00:29:53.200Z,2.07
2019-01-12T00:32:19.671Z,2.20
2019-01-12T00:34:45.990Z,2.10
2019-01-12T00:37:12.350Z,2.00
2019-01-12T00:39:38.763Z,2.20
2019-01-12T00:42:05.115Z,2.47
2019-01-12T00:44:31.536Z,2.10
2019-01-12T00:46:57.954Z,2.53
2019-01-12T00:49:24.296Z,2.17
2019-01-12T00:51:50.649Z,2.30
2019-01-12T00:54:17.066Z,2.43
2019-01-12T00:56:43.438Z,2.60
2019-01-12T00:59:09.898Z,2.13
2019-01-12T01:01:36.347Z,1.97
2019-01-12T01:04:02.781Z,1.83
2019-01-12T01:06:29.196Z,2.10
2019-01-12T01:08:55.571Z,2.30
2019-01-12T01:11:21.991Z,2.17
2019-01-12T01:13:48.392Z,2.17
2019-01-12T01:16:14.765Z,2.57
2019-01-12T01:18:41.131Z,2.17
2019-01-12T01:21:07.512Z,2.10
2019-01-12T01:23:33.869Z,2.40
2019-01-12T01:26:00.363Z,2.60
2019-01-12T01:28:26.799Z,2.00
2019-01-12T01:30:53.150Z,1.90
2019-01-12T01:33:19.564Z,2.30
2019-01-12T01:35:45.895Z,2.13
2019-01-12T01:38:12.313Z,2.40
2019-01-12T01:40:38.762Z,2.20
2019-01-12T01:43:05.125Z,1.97
2019-01-12T01:45:31.483Z,1.90
2019-01-12T01:47:57.945Z,2.30
2019-01-12T01:50:24.319Z,2.03
2019-01-12T01:52:50.738Z,2.10
2019-01-12T01:55:17.152Z,2.37
2019-01-12T01:57:43.544Z,1.90
2019-01-12T02:00:09.915Z,2.10
2019-01-12T02:02:36.271Z,2.63
2019-01-12T02:05:02.696Z,2.10
2019-01-12T02:07:29.075Z,2.40
2019-01-12T02:09:55.644Z,2.00
2019-01-12T02:12:22.170Z,1.77
2019-01-12T02:14:48.523Z,2.10
2019-01-12T02:17:14.949Z,2.33
2019-01-12T02:19:41.308Z,2.20
2019-01-12T02:22:07.673Z,2.40
2019-01-12T02:24:34.067Z,2.00
2019-01-12T02:27:00.500Z,2.10
2019-01-12T02:29:26.869Z,2.40
2019-01-12T02:31:53.324Z,2.13
2019-01-12T02:34:19.729Z,2.10
2019-01-12T02:36:46.037Z,2.00
2019-01-12T02:39:12.457Z,2.00
2019-01-12T02:41:38.810Z,2.00
2019-01-12T02:44:05.327Z,1.87
2019-01-12T02:46:31.760Z,2.03
2019-01-12T02:48:58.087Z,2.40
2019-01-12T02:51:24.501Z,2.07
2019-01-12T02:53:50.863Z,2.37
2019-01-12T02:56:17.301Z,2.27
2019-01-12T02:58:43.638Z,1.87
2019-01-12T03:01:10.059Z,2.10
2019-01-12T03:03:36.457Z,2.10
2019-01-12T03:06:02.904Z,1.90
2019-01-12T03:08:29.255Z,2.20
2019-01-12T03:10:55.628Z,2.00
2019-01-12T03:13:22.171Z,2.10
2019-01-12T03:15:48.695Z,1.97
2019-01-12T03:18:15.050Z,1.77
2019-01-12T03:20:41.534Z,2.00
2019-01-12T03:23:07.852Z,2.10
2019-01-12T03:25:34.296Z,2.10
2019-01-12T03:28:00.660Z,2.13
2019-01-12T03:30:27.018Z,2.03
2019-01-12T03:32:53.392Z,2.17
2019-01-12T03:35:19.811Z,2.20
2019-01-12T03:37:46.309Z,2.17
2019-01-12T03:40:12.742Z,2.20
2019-01-12T03:42:39.173Z,2.50
2019-01-12T03:45:05.545Z,1.67
2019-01-12T03:47:31.990Z,1.90
2019-01-12T03:49:58.356Z,2.10
2019-01-12T03:52:24.716Z,2.10
2019-01-12T03:54:51.223Z,2.20
2019-01-12T03:57:17.569Z,1.87
2019-01-12T03:59:43.974Z,2.20
2019-01-12T04:02:10.341Z,2.17
2019-01-12T04:04:38.017Z,2.20
2019-01-12T04:07:03.236Z,2.00
2019-01-12T04:09:29.592Z,2.10
2019-01-12T04:11:56.025Z,2.10
2019-01-12T04:14:22.405Z,2.13
2019-01-12T04:16:48.802Z,2.00
2019-01-12T04:19:15.166Z,2.00
2019-01-12T04:21:41.573Z,2.10
2019-01-12T04:24:08.022Z,1.83
2019-01-12T04:26:34.361Z,2.03
2019-01-12T04:29:00.703Z,2.00
2019-01-12T04:31:27.033Z,1.90
2019-01-12T04:33:53.434Z,1.90
2019-01-12T04:36:19.756Z,2.03
2019-01-12T04:38:46.086Z,2.00
2019-01-12T04:41:12.483Z,2.17
2019-01-12T04:43:38.869Z,1.93
2019-01-12T04:46:05.200Z,1.83
2019-01-12T04:48:31.531Z,1.77
2019-01-12T04:50:57.863Z,1.80
2019-01-12T04:53:24.201Z,2.00
2019-01-12T04:55:50.587Z,2.07
2019-01-12T04:58:16.928Z,2.07
2019-01-12T05:00:43.316Z,1.80
2019-01-12T05:03:09.640Z,1.90
2019-01-12T05:05:35.964Z,1.90
2019-01-12T05:08:02.342Z,1.70
2019-01-12T05:10:28.690Z,1.80
2019-01-12T05:12:55.015Z,1.87
2019-01-12T05:15:21.347Z,2.00
2019-01-12T05:17:47.759Z,1.90
2019-01-12T05:20:14.119Z,1.90
2019-01-12T05:22:40.457Z,1.50
2019-01-12T05:25:06.849Z,1.90
2019-01-12T05:27:33.194Z,1.90
2019-01-12T05:29:59.646Z,2.07
2019-01-12T05:32:26.036Z,1.57
2019-01-12T05:34:52.517Z,1.97
2019-01-12T05:37:18.854Z,1.73
2019-01-12T05:39:45.180Z,1.87
2019-01-12T05:42:11.551Z,1.83
2019-01-12T05:44:37.888Z,1.87
2019-01-12T05:47:04.276Z,1.73
2019-01-12T05:49:30.607Z,1.90
2019-01-12T05:51:57.008Z,2.00
2019-01-12T05:54:23.389Z,1.77
2019-01-12T05:56:49.724Z,1.87
2019-01-12T05:59:16.076Z,1.80
2019-01-12T06:01:42.428Z,1.70
2019-01-12T06:04:08.759Z,2.10
2019-01-12T06:06:35.143Z,1.80
2019-01-12T06:09:01.530Z,1.77
2019-01-12T06:11:27.861Z,1.90
2019-01-12T06:13:54.210Z,1.73
2019-01-12T06:16:20.560Z,1.80
2019-01-12T06:18:46.891Z,2.00
2019-01-12T06:21:13.214Z,1.70
2019-01-12T06:23:39.561Z,1.80
2019-01-12T06:26:05.897Z,1.93
2019-01-12T06:28:32.273Z,1.80
2019-01-12T06:30:58.604Z,1.70
2019-01-12T06:33:25.010Z,1.80
2019-01-12T06:35:51.340Z,1.90
2019-01-12T06:38:17.692Z,2.30
2019-01-12T06:40:44.127Z,1.77
2019-01-12T06:43:10.417Z,1.83
2019-01-12T06:45:36.825Z,1.70
2019-01-12T06:48:03.166Z,1.73
2019-01-12T06:50:29.554Z,1.90
2019-01-12T06:52:55.950Z,1.87
2019-01-12T06:55:22.233Z,1.70
2019-01-12T06:57:48.565Z,1.73
2019-01-12T07:00:14.900Z,2.17
2019-01-12T07:02:41.218Z,1.57
2019-01-12T07:05:07.611Z,2.07
2019-01-12T07:07:33.961Z,1.70
2019-01-12T07:10:00.447Z,2.00
2019-01-12T07:12:26.782Z,1.73
2019-01-12T07:14:53.190Z,2.00
2019-01-12T07:17:19.532Z,1.90
2019-01-12T07:19:45.862Z,2.07
2019-01-12T07:22:12.204Z,2.00
2019-01-12T07:24:38.534Z,1.50
2019-01-12T07:27:04.930Z,1.93
2019-01-12T07:29:31.273Z,1.60
2019-01-12T07:31:57.605Z,2.10
2019-01-12T07:34:23.985Z,1.87
2019-01-12T07:36:50.326Z,1.77
2019-01-12T07:39:16.656Z,1.90
2019-01-12T07:41:42.989Z,1.87
2019-01-12T07:44:09.353Z,1.63
2019-01-12T07:46:35.685Z,1.57
2019-01-12T07:49:02.163Z,1.70
2019-01-12T07:51:28.527Z,1.87
2019-01-12T07:53:54.885Z,1.60
2019-01-12T07:56:24.716Z,1.60
2019-01-12T07:58:47.655Z,1.50
2019-01-12T08:01:13.993Z,1.90
2019-01-12T08:03:40.404Z,1.93
2019-01-12T08:06:06.755Z,1.87
2019-01-12T08:08:33.108Z,1.60
2019-01-12T08:10:59.452Z,1.80
2019-01-12T08:13:25.831Z,1.73
2019-01-12T08:15:52.215Z,1.73
2019-01-12T08:18:18.553Z,1.50
2019-01-12T08:20:45.027Z,1.50
2019-01-12T08:23:11.332Z,1.57
2019-01-12T08:25:37.726Z,1.80
2019-01-12T08:28:04.016Z,2.07
2019-01-12T08:30:30.360Z,1.73
2019-01-12T08:32:56.827Z,1.70
2019-01-12T08:35:23.209Z,1.80
2019-01-12T08:37:49.554Z,1.90
2019-01-12T08:40:15.901Z,1.50
2019-01-12T08:42:42.237Z,1.60
2019-01-12T08:45:08.644Z,1.50
2019-01-12T08:47:34.997Z,1.80
2019-01-12T08:50:01.334Z,1.80
2019-01-12T08:52:27.660Z,1.77
2019-01-12T08:54:53.987Z,1.53
2019-01-12T08:57:20.316Z,1.43
2019-01-12T08:59:46.632Z,1.77
2019-01-12T09:02:12.975Z,1.80
2019-01-12T09:04:43.554Z,1.60
2019-01-12T09:07:05.711Z,1.80
2019-01-12T09:09:32.041Z,1.83
2019-01-12T09:11:58.430Z,1.60
2019-01-12T09:14:24.761Z,1.63
2019-01-12T09:16:51.085Z,1.73
2019-01-12T09:19:17.573Z,1.60
2019-01-12T09:21:43.897Z,1.90
2019-01-12T09:24:10.232Z,1.77
2019-01-12T09:26:36.661Z,1.80
2019-01-12T09:29:03.045Z,1.70
2019-01-12T09:31:29.568Z,1.73
2019-01-12T09:33:55.938Z,2.00
2019-01-12T09:36:22.291Z,1.70
2019-01-12T09:38:48.806Z,1.70
2019-01-12T09:41:15.011Z,1.70
2019-01-12T09:43:41.394Z,1.60
2019-01-12T09:46:07.713Z,1.80
2019-01-12T09:48:34.058Z,1.80
2019-01-12T09:51:00.400Z,1.87
2019-01-12T09:53:26.789Z,1.80
2019-01-12T09:55:53.157Z,1.87
2019-01-12T09:58:19.496Z,1.87
2019-01-12T10:00:45.884Z,1.63
2019-01-12T10:03:12.214Z,1.80
2019-01-12T10:05:38.596Z,1.60
2019-01-12T10:08:04.922Z,1.77
2019-01-12T10:10:31.320Z,2.00
2019-01-12T10:12:57.660Z,1.47
2019-01-12T10:15:24.000Z,1.63
2019-01-12T10:17:50.330Z,1.60
2019-01-12T10:20:16.715Z,1.83
2019-01-12T10:22:43.035Z,1.67
2019-01-12T10:25:09.370Z,1.57
2019-01-12T10:27:35.745Z,1.90
2019-01-12T10:30:02.134Z,1.80
2019-01-12T10:32:28.411Z,1.63
2019-01-12T10:34:54.754Z,1.70
2019-01-12T10:37:21.091Z,1.57
2019-01-12T10:39:47.423Z,1.50
2019-01-12T10:42:13.755Z,1.40
2019-01-12T10:44:40.133Z,1.77
2019-01-12T10:47:06.463Z,1.53
2019-01-12T10:49:32.848Z,1.73
2019-01-12T10:51:59.201Z,1.90
2019-01-12T10:54:25.540Z,1.40
2019-01-12T10:56:51.870Z,1.73
2019-01-12T10:59:18.202Z,1.50
2019-01-12T11:01:44.573Z,1.70
2019-01-12T11:04:10.964Z,1.70
2019-01-12T11:06:37.261Z,1.60
2019-01-12T11:09:03.586Z,1.87
2019-01-12T11:11:29.915Z,1.60
2019-01-12T11:13:56.296Z,1.83
2019-01-12T11:16:22.636Z,1.80
2019-01-12T11:18:49.044Z,1.80
2019-01-12T11:21:15.372Z,1.70
2019-01-12T11:23:41.767Z,1.60
2019-01-12T11:26:08.109Z,1.53
2019-01-12T11:28:34.501Z,1.70
2019-01-12T11:31:00.832Z,1.63
2019-01-12T11:33:27.182Z,1.60
2019-01-12T11:35:53.508Z,1.50
2019-01-12T11:38:19.899Z,1.57
2019-01-12T11:40:46.295Z,1.90
2019-01-12T11:43:12.576Z,1.87
2019-01-12T11:45:38.972Z,1.60
2019-01-12T11:48:05.301Z,1.60
2019-01-12T11:50:31.634Z,1.60
2019-01-12T11:52:58.020Z,1.63
2019-01-12T11:55:24.425Z,1.63
2019-01-12T11:57:50.822Z,1.37
2019-01-12T12:00:17.135Z,1.60
2019-01-12T12:02:43.470Z,1.60
2019-01-12T12:05:09.796Z,1.40
2019-01-12T12:07:36.126Z,1.60
2019-01-12T12:10:02.459Z,1.67
2019-01-12T12:12:28.787Z,1.60
2019-01-12T12:14:55.171Z,1.40
2019-01-12T12:17:21.531Z,1.67
2019-01-12T12:19:47.887Z,1.63
2019-01-12T12:22:14.215Z,1.70
2019-01-12T12:24:40.638Z,1.60
2019-01-12T12:27:06.953Z,1.43
2019-01-12T12:29:33.289Z,1.53
2019-01-12T12:31:59.635Z,1.50
2019-01-12T12:34:26.031Z,1.57
2019-01-12T12:36:52.483Z,1.50
2019-01-12T12:39:18.892Z,1.40
2019-01-12T12:41:45.174Z,1.40
2019-01-12T12:44:11.587Z,1.43
2019-01-12T12:46:37.924Z,1.70
2019-01-12T12:49:04.321Z,1.67
2019-01-12T12:51:30.784Z,1.70
2019-01-12T12:53:57.126Z,1.83
2019-01-12T12:56:23.447Z,1.60
2019-01-12T12:58:49.794Z,1.60
2019-01-12T13:01:16.177Z,1.30
2019-01-12T13:03:42.531Z,1.40
2019-01-12T13:06:08.858Z,1.60
2019-01-12T13:08:35.197Z,1.43
2019-01-12T13:11:01.539Z,1.40
2019-01-12T13:13:27.868Z,1.43
2019-01-12T13:15:54.204Z,1.77
2019-01-12T13:18:20.613Z,1.80
2019-01-12T13:20:46.936Z,1.53
2019-01-12T13:23:13.267Z,1.40
2019-01-12T13:25:39.610Z,1.67
2019-01-12T13:28:05.934Z,1.70
2019-01-12T13:30:32.318Z,1.50
2019-01-12T13:32:58.674Z,1.70
2019-01-12T13:35:25.005Z,1.70
2019-01-12T13:37:51.333Z,1.50
2019-01-12T13:40:17.717Z,1.50
2019-01-12T13:42:44.107Z,1.50
2019-01-12T13:45:10.447Z,1.77
2019-01-12T13:47:36.840Z,1.40
2019-01-12T13:50:03.219Z,1.63
2019-01-12T13:52:29.625Z,1.60
2019-01-12T13:54:55.975Z,1.57
2019-01-12T13:57:22.299Z,1.50
2019-01-12T13:59:48.633Z,1.60
2019-01-12T14:02:14.987Z,1.43
2019-01-12T14:04:41.320Z,1.77
2019-01-12T14:07:07.648Z,1.50
2019-01-12T14:09:34.087Z,1.70
2019-01-12T14:12:00.418Z,1.70
2019-01-12T14:14:26.850Z,1.70
2019-01-12T14:16:53.202Z,1.60
2019-01-12T14:19:19.593Z,1.40
2019-01-12T14:21:45.922Z,1.70
2019-01-12T14:24:12.253Z,1.60
2019-01-12T14:26:38.582Z,1.57
2019-01-12T14:29:04.952Z,1.63
2019-01-12T14:31:31.275Z,1.70
2019-01-12T14:33:57.668Z,1.60
2019-01-12T14:36:24.008Z,1.60
2019-01-12T14:38:50.344Z,1.53
2019-01-12T14:41:16.737Z,1.43
2019-01-12T14:43:43.077Z,1.57
2019-01-12T14:46:09.417Z,1.60
2019-01-12T14:48:35.762Z,1.60
2019-01-12T14:51:02.082Z,1.40
2019-01-12T14:53:28.461Z,1.80
2019-01-12T14:55:54.800Z,1.40
2019-01-12T14:58:21.134Z,1.57
2019-01-12T15:00:47.640Z,1.60
2019-01-12T15:03:13.983Z,1.33
2019-01-12T15:05:40.307Z,1.43
2019-01-12T15:08:06.645Z,1.60
2019-01-12T15:10:32.976Z,1.60
2019-01-12T15:12:59.349Z,1.67
2019-01-12T15:15:25.681Z,1.50
2019-01-12T15:17:52.011Z,1.50
2019-01-12T15:20:18.353Z,1.50
2019-01-12T15:22:44.730Z,1.70
2019-01-12T15:25:11.060Z,1.57
2019-01-12T15:27:37.393Z,1.73
2019-01-12T15:30:03.720Z,1.50
2019-01-12T15:32:30.069Z,1.23
2019-01-12T15:34:56.453Z,1.77
2019-01-12T15:37:22.888Z,1.30
2019-01-12T15:39:49.219Z,1.47
2019-01-12T15:42:15.550Z,1.50
2019-01-12T15:44:41.958Z,1.37
2019-01-12T15:47:08.411Z,1.33
2019-01-12T15:49:34.844Z,1.50
2019-01-12T15:52:01.275Z,1.60
2019-01-12T15:54:27.598Z,1.47
2019-01-12T15:56:53.940Z,1.67
2019-01-12T15:59:20.282Z,1.50
2019-01-12T16:01:46.636Z,1.50
2019-01-12T16:04:12.983Z,1.57
2019-01-12T16:06:39.306Z,1.47
2019-01-12T16:09:05.640Z,1.47
2019-01-12T16:11:32.014Z,1.50
2019-01-12T16:13:58.342Z,1.70
2019-01-12T16:16:24.666Z,1.60
2019-01-12T16:18:51.007Z,1.87
2019-01-12T16:21:17.333Z,1.20
2019-01-12T16:23:43.669Z,1.47
2019-01-12T16:26:10.024Z,1.50
2019-01-12T16:28:36.333Z,1.60
2019-01-12T16:31:02.673Z,1.50
2019-01-12T16:33:29.011Z,1.60
2019-01-12T16:35:55.341Z,1.40
2019-01-12T16:38:21.679Z,1.50
2019-01-12T16:40:48.022Z,1.60
2019-01-12T16:43:14.351Z,1.40
2019-01-12T16:45:40.735Z,1.20
2019-01-12T16:48:07.086Z,1.80
2019-01-12T16:50:33.515Z,1.70
2019-01-12T16:52:59.849Z,1.50
2019-01-12T16:55:26.175Z,1.50
2019-01-12T16:57:52.519Z,1.50
2019-01-12T17:00:18.855Z,1.60
2019-01-12T17:02:45.215Z,1.40
2019-01-12T17:05:11.582Z,1.40
2019-01-12T17:07:37.905Z,1.47
2019-01-12T17:10:04.252Z,1.57
2019-01-12T17:12:32.811Z,1.87
2019-01-12T17:14:59.143Z,1.80
2019-01-12T17:17:25.479Z,1.70
2019-01-12T17:19:51.847Z,1.50
2019-01-12T17:22:18.178Z,1.37
2019-01-12T17:24:44.509Z,1.60
2019-01-12T17:27:10.926Z,1.50
2019-01-12T17:29:37.268Z,1.37
2019-01-12T17:32:03.613Z,1.70
2019-01-12T17:34:29.940Z,1.43
2019-01-12T17:36:58.830Z,1.50
2019-01-12T17:39:22.707Z,1.20
2019-01-12T17:41:49.051Z,1.77
2019-01-12T17:44:15.392Z,1.47
2019-01-12T17:46:41.782Z,1.40
2019-01-12T17:49:08.135Z,1.67
2019-01-12T17:51:34.482Z,1.50
2019-01-12T17:54:00.814Z,1.57
2019-01-12T17:56:27.135Z,1.47
2019-01-12T17:58:53.467Z,1.60
2019-01-12T18:01:19.846Z,1.40
2019-01-12T18:03:46.159Z,1.67
2019-01-12T18:06:13.724Z,1.33
2019-01-12T18:08:38.841Z,1.60
2019-01-12T18:11:05.168Z,1.47
2019-01-12T18:13:31.505Z,1.57
2019-01-12T18:15:57.903Z,1.60
2019-01-12T18:18:24.255Z,1.43
2019-01-12T18:20:50.594Z,1.20
2019-01-12T18:23:16.928Z,1.30
2019-01-12T18:25:43.280Z,1.50
2019-01-12T18:28:09.612Z,1.40
2019-01-12T18:30:36.599Z,1.50
2019-01-12T18:33:02.346Z,1.40
2019-01-12T18:35:28.684Z,1.50
2019-01-12T18:37:55.211Z,1.37
2019-01-12T18:40:21.559Z,1.40
2019-01-12T18:42:47.899Z,1.77
2019-01-12T18:45:14.323Z,1.50
2019-01-12T18:47:40.584Z,1.43
2019-01-12T18:50:06.999Z,1.50
2019-01-12T18:52:33.338Z,1.50
2019-01-12T18:54:59.666Z,1.70
2019-01-12T18:57:26.043Z,1.53
2019-01-12T18:59:52.327Z,1.70
2019-01-12T19:02:18.719Z,1.60
2019-01-12T19:04:45.060Z,1.40
2019-01-12T19:07:11.404Z,1.30
2019-01-12T19:09:38.442Z,1.67
2019-01-12T19:12:04.153Z,1.50
2019-01-12T19:14:30.483Z,1.50
2019-01-12T19:16:56.808Z,1.60
2019-01-12T19:19:23.164Z,1.40
2019-01-12T19:21:49.515Z,1.40
2019-01-12T19:24:15.921Z,1.60
2019-01-12T19:26:42.357Z,1.40
2019-01-12T19:29:08.701Z,1.40
2019-01-12T19:31:35.067Z,1.30
2019-01-12T19:34:01.440Z,1.50
2019-01-12T19:36:27.854Z,1.40
2019-01-12T19:38:54.186Z,1.40
2019-01-12T19:41:20.513Z,1.20
2019-01-12T19:43:46.879Z,1.20
2019-01-12T19:46:13.240Z,1.60
2019-01-12T19:48:39.611Z,1.30
2019-01-12T19:51:05.941Z,1.30
2019-01-12T19:53:32.280Z,1.50
2019-01-12T19:55:58.668Z,1.30
2019-01-12T19:58:26.100Z,1.47
2019-01-12T20:00:51.409Z,1.30
2019-01-12T20:03:17.799Z,1.30
2019-01-12T20:05:44.132Z,1.40
2019-01-12T20:08:10.550Z,1.40
2019-01-12T20:10:36.851Z,1.40
2019-01-12T20:13:03.195Z,1.53
2019-01-12T20:15:29.567Z,1.30
2019-01-12T20:17:55.857Z,1.30
2019-01-12T20:20:22.245Z,1.30
2019-01-12T20:22:50.173Z,1.53
2019-01-12T20:25:14.971Z,1.50
2019-01-12T20:27:41.308Z,1.60
2019-01-12T20:30:07.686Z,1.20
2019-01-12T20:32:34.032Z,1.20
2019-01-12T20:35:00.389Z,1.10
2019-01-12T20:37:26.761Z,1.40
2019-01-12T20:39:53.071Z,1.30
2019-01-12T20:42:19.504Z,1.33
2019-01-12T20:44:45.833Z,1.37
2019-01-12T20:47:12.161Z,1.40
2019-01-12T20:49:38.523Z,1.30
2019-01-12T20:52:04.891Z,1.27
2019-01-12T20:54:31.237Z,1.20
2019-01-12T20:56:57.624Z,1.47
2019-01-12T20:59:28.113Z,1.23
2019-01-12T21:01:50.355Z,1.27
2019-01-12T21:04:16.640Z,1.40
2019-01-12T21:06:43.138Z,1.23
2019-01-12T21:09:09.473Z,1.40
2019-01-12T21:11:35.798Z,1.20
2019-01-12T21:14:02.156Z,1.40
2019-01-12T21:16:28.495Z,1.40
2019-01-12T21:18:54.866Z,1.60
2019-01-12T21:21:21.198Z,1.27
2019-01-12T21:23:47.527Z,1.43
2019-01-12T21:26:13.878Z,1.30
2019-01-12T21:28:40.227Z,1.30
2019-01-12T21:31:06.558Z,1.30
2019-01-12T21:33:32.888Z,1.47
2019-01-12T21:35:59.223Z,1.40
2019-01-12T21:38:25.548Z,1.23
2019-01-12T21:40:51.933Z,1.30
2019-01-12T21:43:18.332Z,1.30
2019-01-12T21:45:44.740Z,1.23
2019-01-12T21:48:11.074Z,1.30
2019-01-12T21:50:37.415Z,1.40
2019-01-12T21:53:03.792Z,1.30
2019-01-12T21:55:31.056Z,1.30
2019-01-12T21:57:56.512Z,1.20
2019-01-12T22:00:22.876Z,1.23
2019-01-12T22:02:49.218Z,1.50
2019-01-12T22:05:15.556Z,1.30
2019-01-12T22:07:41.988Z,1.47
2019-01-12T22:10:08.271Z,1.40
2019-01-12T22:12:34.655Z,1.40
2019-01-12T22:15:01.002Z,1.50
2019-01-12T22:17:27.479Z,1.80
2019-01-12T22:19:53.853Z,1.60
2019-01-12T22:22:20.134Z,1.87
2019-01-12T22:24:46.463Z,1.70
2019-01-12T22:27:12.792Z,1.77
2019-01-12T22:29:39.125Z,1.83
2019-01-12T22:32:05.485Z,1.70
2019-01-12T22:34:31.816Z,2.00
2019-01-12T22:36:58.195Z,1.93
2019-01-12T22:39:24.520Z,1.67
2019-01-12T22:41:50.903Z,2.10
2019-01-12T22:44:17.283Z,1.90
2019-01-12T22:46:43.623Z,1.80
2019-01-12T22:49:09.954Z,1.73
2019-01-12T22:51:36.346Z,2.30
2019-01-12T22:54:02.692Z,2.20
2019-01-12T22:56:30.203Z,2.10
2019-01-12T22:58:55.392Z,2.00
2019-01-12T23:01:21.812Z,2.20
2019-01-12T23:03:48.131Z,2.30
2019-01-12T23:06:14.487Z,2.33
2019-01-12T23:08:40.762Z,2.10
2019-01-12T23:11:07.208Z,1.97
2019-01-12T23:13:33.592Z,2.00
2019-01-12T23:15:59.916Z,2.57
2019-01-12T23:18:26.255Z,2.43
2019-01-12T23:20:52.590Z,2.40
2019-01-12T23:23:19.058Z,2.20
2019-01-12T23:25:45.387Z,2.30
2019-01-12T23:28:11.952Z,2.40
2019-01-12T23:30:38.343Z,2.20
2019-01-12T23:33:04.641Z,2.47
2019-01-12T23:35:31.059Z,2.17
2019-01-12T23:37:57.501Z,2.37
2019-01-12T23:40:23.832Z,2.47
2019-01-12T23:42:50.222Z,2.33
2019-01-12T23:45:16.562Z,2.60
2019-01-12T23:47:42.942Z,2.27
2019-01-12T23:50:09.274Z,2.27
2019-01-12T23:52:35.623Z,2.37
2019-01-12T23:55:01.963Z,2.10
2019-01-12T23:57:28.338Z,2.47
2019-01-12T23:59:54.694Z,2.50
